sensor_id;sensor_type;location;lat;lon;timestamp;P1;durP1;ratioP1;P2;durP2;ratioP2
43823;SDS011;29470;53.550;9.926;2024-01-11T00:01:51;44.42;;;17.08;;
43823;SDS011;29470;53.550;9.926;2024-01-11T00:07:11;38.90;;;14.93;;
43823;SDS011;29470;53.550;9.926;2024-01-11T00:12:34;40.85;;;16.63;;
43823;SDS011;29470;53.550;9.926;2024-01-11T00:17:47;42.13;;;16.17;;
43823;SDS011;29470;53.550;9.926;2024-01-11T00:23:10;47.30;;;16.73;;
43823;SDS011;29470;53.550;9.926;2024-01-11T00:28:28;45.05;;;16.10;;
43823;SDS011;29470;53.550;9.926;2024-01-11T00:33:40;41.65;;;15.80;;
43823;SDS011;29470;53.550;9.926;2024-01-11T00:39:05;37.97;;;14.15;;
43823;SDS011;29470;53.550;9.926;2024-01-11T00:44:25;41.03;;;14.48;;
43823;SDS011;29470;53.550;9.926;2024-01-11T00:49:42;40.65;;;14.52;;
43823;SDS011;29470;53.550;9.926;2024-01-11T00:55:02;42.95;;;15.80;;
43823;SDS011;29470;53.550;9.926;2024-01-11T01:00:29;35.78;;;13.82;;
43823;SDS011;29470;53.550;9.926;2024-01-11T01:05:54;41.30;;;15.10;;
43823;SDS011;29470;53.550;9.926;2024-01-11T01:11:15;40.58;;;15.27;;
43823;SDS011;29470;53.550;9.926;2024-01-11T01:16:40;41.03;;;14.93;;
43823;SDS011;29470;53.550;9.926;2024-01-11T01:21:54;41.40;;;14.25;;
43823;SDS011;29470;53.550;9.926;2024-01-11T01:27:17;43.33;;;14.15;;
43823;SDS011;29470;53.550;9.926;2024-01-11T01:32:32;40.17;;;14.93;;
43823;SDS011;29470;53.550;9.926;2024-01-11T01:37:47;40.97;;;15.35;;
43823;SDS011;29470;53.550;9.926;2024-01-11T01:43:10;38.78;;;13.68;;
43823;SDS011;29470;53.550;9.926;2024-01-11T01:48:33;36.72;;;13.40;;
43823;SDS011;29470;53.550;9.926;2024-01-11T01:53:46;38.85;;;13.30;;
43823;SDS011;29470;53.550;9.926;2024-01-11T02:04:20;42.67;;;14.90;;
43823;SDS011;29470;53.550;9.926;2024-01-11T02:09:41;41.60;;;14.35;;
43823;SDS011;29470;53.550;9.926;2024-01-11T02:15:03;38.97;;;15.25;;
43823;SDS011;29470;53.550;9.926;2024-01-11T02:20:22;42.53;;;15.38;;
43823;SDS011;29470;53.550;9.926;2024-01-11T02:25:49;43.22;;;16.27;;
43823;SDS011;29470;53.550;9.926;2024-01-11T02:31:06;46.38;;;16.05;;
43823;SDS011;29470;53.550;9.926;2024-01-11T02:36:35;40.63;;;14.90;;
43823;SDS011;29470;53.550;9.926;2024-01-11T02:42:07;46.97;;;15.73;;
43823;SDS011;29470;53.550;9.926;2024-01-11T02:47:32;45.40;;;15.18;;
43823;SDS011;29470;53.550;9.926;2024-01-11T02:52:48;45.10;;;16.33;;
43823;SDS011;29470;53.550;9.926;2024-01-11T02:58:09;49.92;;;17.10;;
43823;SDS011;29470;53.550;9.926;2024-01-11T03:03:37;51.30;;;17.27;;
43823;SDS011;29470;53.550;9.926;2024-01-11T03:08:57;54.90;;;18.30;;
43823;SDS011;29470;53.550;9.926;2024-01-11T03:14:25;56.17;;;19.23;;
43823;SDS011;29470;53.550;9.926;2024-01-11T03:25:03;58.40;;;19.70;;
43823;SDS011;29470;53.550;9.926;2024-01-11T03:30:26;56.50;;;19.65;;
43823;SDS011;29470;53.550;9.926;2024-01-11T03:35:44;55.28;;;18.85;;
43823;SDS011;29470;53.550;9.926;2024-01-11T03:41:01;57.70;;;20.10;;
43823;SDS011;29470;53.550;9.926;2024-01-11T03:46:20;56.27;;;19.97;;
43823;SDS011;29470;53.550;9.926;2024-01-11T03:51:39;58.30;;;19.25;;
43823;SDS011;29470;53.550;9.926;2024-01-11T03:56:53;48.78;;;17.33;;
43823;SDS011;29470;53.550;9.926;2024-01-11T04:02:09;48.40;;;17.23;;
43823;SDS011;29470;53.550;9.926;2024-01-11T04:07:25;47.70;;;17.63;;
43823;SDS011;29470;53.550;9.926;2024-01-11T04:12:51;54.88;;;18.85;;
43823;SDS011;29470;53.550;9.926;2024-01-11T04:18:17;59.55;;;19.83;;
43823;SDS011;29470;53.550;9.926;2024-01-11T04:23:29;66.43;;;23.02;;
43823;SDS011;29470;53.550;9.926;2024-01-11T04:28:48;75.43;;;25.30;;
43823;SDS011;29470;53.550;9.926;2024-01-11T04:34:05;74.30;;;25.77;;
43823;SDS011;29470;53.550;9.926;2024-01-11T04:39:22;83.18;;;27.92;;
43823;SDS011;29470;53.550;9.926;2024-01-11T04:44:47;84.00;;;27.55;;
43823;SDS011;29470;53.550;9.926;2024-01-11T04:50:21;83.03;;;26.70;;
43823;SDS011;29470;53.550;9.926;2024-01-11T04:55:43;75.85;;;24.83;;
43823;SDS011;29470;53.550;9.926;2024-01-11T05:01:11;68.70;;;23.23;;
43823;SDS011;29470;53.550;9.926;2024-01-11T05:06:28;54.80;;;18.92;;
43823;SDS011;29470;53.550;9.926;2024-01-11T05:11:51;54.67;;;19.00;;
43823;SDS011;29470;53.550;9.926;2024-01-11T05:17:16;49.35;;;17.52;;
43823;SDS011;29470;53.550;9.926;2024-01-11T05:22:32;61.85;;;21.17;;
43823;SDS011;29470;53.550;9.926;2024-01-11T05:27:57;55.78;;;19.27;;
43823;SDS011;29470;53.550;9.926;2024-01-11T05:33:34;49.70;;;16.80;;
43823;SDS011;29470;53.550;9.926;2024-01-11T05:38:51;44.55;;;15.50;;
43823;SDS011;29470;53.550;9.926;2024-01-11T05:44:19;41.60;;;14.70;;
43823;SDS011;29470;53.550;9.926;2024-01-11T05:49:31;43.28;;;14.32;;
43823;SDS011;29470;53.550;9.926;2024-01-11T05:54:49;33.83;;;12.15;;
43823;SDS011;29470;53.550;9.926;2024-01-11T06:00:06;29.65;;;9.93;;
43823;SDS011;29470;53.550;9.926;2024-01-11T06:05:27;23.45;;;9.32;;
43823;SDS011;29470;53.550;9.926;2024-01-11T06:11:03;27.90;;;9.57;;
43823;SDS011;29470;53.550;9.926;2024-01-11T06:16:20;38.03;;;9.25;;
43823;SDS011;29470;53.550;9.926;2024-01-11T06:21:40;23.98;;;7.30;;
43823;SDS011;29470;53.550;9.926;2024-01-11T06:27:16;31.63;;;8.55;;
43823;SDS011;29470;53.550;9.926;2024-01-11T06:32:34;21.10;;;6.95;;
43823;SDS011;29470;53.550;9.926;2024-01-11T06:37:54;20.73;;;6.82;;
43823;SDS011;29470;53.550;9.926;2024-01-11T06:43:17;26.92;;;7.60;;
43823;SDS011;29470;53.550;9.926;2024-01-11T06:48:39;23.13;;;6.90;;
43823;SDS011;29470;53.550;9.926;2024-01-11T06:54:01;26.10;;;8.48;;
43823;SDS011;29470;53.550;9.926;2024-01-11T06:59:34;23.38;;;7.60;;
43823;SDS011;29470;53.550;9.926;2024-01-11T07:04:49;27.25;;;8.30;;
43823;SDS011;29470;53.550;9.926;2024-01-11T07:10:08;30.15;;;8.90;;
43823;SDS011;29470;53.550;9.926;2024-01-11T07:15:30;32.45;;;9.40;;
43823;SDS011;29470;53.550;9.926;2024-01-11T07:20:46;29.17;;;7.90;;
43823;SDS011;29470;53.550;9.926;2024-01-11T07:26:08;35.35;;;9.63;;
43823;SDS011;29470;53.550;9.926;2024-01-11T07:31:35;39.90;;;9.20;;
43823;SDS011;29470;53.550;9.926;2024-01-11T07:37:01;38.47;;;9.50;;
43823;SDS011;29470;53.550;9.926;2024-01-11T07:42:23;39.72;;;9.88;;
43823;SDS011;29470;53.550;9.926;2024-01-11T07:47:50;34.42;;;8.98;;
43823;SDS011;29470;53.550;9.926;2024-01-11T07:53:04;35.92;;;9.98;;
43823;SDS011;29470;53.550;9.926;2024-01-11T07:58:24;34.58;;;9.93;;
43823;SDS011;29470;53.550;9.926;2024-01-11T08:03:46;40.33;;;9.55;;
43823;SDS011;29470;53.550;9.926;2024-01-11T08:09:04;37.47;;;9.85;;
43823;SDS011;29470;53.550;9.926;2024-01-11T08:14:40;25.95;;;8.98;;
43823;SDS011;29470;53.550;9.926;2024-01-11T08:20:03;31.92;;;9.80;;
43823;SDS011;29470;53.550;9.926;2024-01-11T08:25:27;33.83;;;9.65;;
43823;SDS011;29470;53.550;9.926;2024-01-11T08:30:51;36.00;;;10.88;;
43823;SDS011;29470;53.550;9.926;2024-01-11T08:36:20;36.85;;;10.10;;
43823;SDS011;29470;53.550;9.926;2024-01-11T08:41:40;26.15;;;9.27;;
43823;SDS011;29470;53.550;9.926;2024-01-11T08:47:09;32.10;;;10.20;;
43823;SDS011;29470;53.550;9.926;2024-01-11T08:52:42;31.92;;;10.20;;
43823;SDS011;29470;53.550;9.926;2024-01-11T08:58:09;23.85;;;8.38;;
43823;SDS011;29470;53.550;9.926;2024-01-11T09:03:36;27.40;;;8.18;;
43823;SDS011;29470;53.550;9.926;2024-01-11T09:09:10;30.95;;;9.02;;
43823;SDS011;29470;53.550;9.926;2024-01-11T09:14:31;25.13;;;8.32;;
43823;SDS011;29470;53.550;9.926;2024-01-11T09:19:55;27.90;;;8.52;;
43823;SDS011;29470;53.550;9.926;2024-01-11T09:25:24;25.70;;;8.93;;
43823;SDS011;29470;53.550;9.926;2024-01-11T09:30:45;26.13;;;9.20;;
43823;SDS011;29470;53.550;9.926;2024-01-11T09:36:12;21.63;;;8.35;;
43823;SDS011;29470;53.550;9.926;2024-01-11T09:41:46;26.25;;;8.38;;
43823;SDS011;29470;53.550;9.926;2024-01-11T09:47:23;28.27;;;9.50;;
43823;SDS011;29470;53.550;9.926;2024-01-11T09:52:50;31.63;;;10.85;;
43823;SDS011;29470;53.550;9.926;2024-01-11T09:58:26;37.17;;;11.90;;
43823;SDS011;29470;53.550;9.926;2024-01-11T10:09:19;37.72;;;13.02;;
43823;SDS011;29470;53.550;9.926;2024-01-11T10:14:48;33.60;;;12.60;;
43823;SDS011;29470;53.550;9.926;2024-01-11T10:20:08;41.53;;;14.05;;
43823;SDS011;29470;53.550;9.926;2024-01-11T10:25:45;39.47;;;13.95;;
43823;SDS011;29470;53.550;9.926;2024-01-11T10:31:13;42.88;;;14.20;;
43823;SDS011;29470;53.550;9.926;2024-01-11T10:36:41;43.65;;;14.57;;
43823;SDS011;29470;53.550;9.926;2024-01-11T10:42:11;46.55;;;15.88;;
43823;SDS011;29470;53.550;9.926;2024-01-11T10:53:18;44.67;;;14.15;;
43823;SDS011;29470;53.550;9.926;2024-01-11T10:58:46;44.42;;;15.57;;
43823;SDS011;29470;53.550;9.926;2024-01-11T11:03:56;44.78;;;16.20;;
43823;SDS011;29470;53.550;9.926;2024-01-11T11:09:07;46.30;;;16.42;;
43823;SDS011;29470;53.550;9.926;2024-01-11T11:14:25;42.70;;;15.48;;
43823;SDS011;29470;53.550;9.926;2024-01-11T11:19:47;52.88;;;17.05;;
43823;SDS011;29470;53.550;9.926;2024-01-11T11:25:04;46.42;;;17.25;;
43823;SDS011;29470;53.550;9.926;2024-01-11T11:30:36;50.42;;;17.25;;
43823;SDS011;29470;53.550;9.926;2024-01-11T11:35:56;46.92;;;16.08;;
43823;SDS011;29470;53.550;9.926;2024-01-11T11:41:22;50.90;;;16.90;;
43823;SDS011;29470;53.550;9.926;2024-01-11T11:46:35;48.03;;;16.27;;
43823;SDS011;29470;53.550;9.926;2024-01-11T11:51:52;53.90;;;17.02;;
43823;SDS011;29470;53.550;9.926;2024-01-11T11:57:08;46.03;;;15.70;;
43823;SDS011;29470;53.550;9.926;2024-01-11T12:02:25;49.85;;;17.83;;
43823;SDS011;29470;53.550;9.926;2024-01-11T12:07:52;49.00;;;17.83;;
43823;SDS011;29470;53.550;9.926;2024-01-11T12:13:15;53.35;;;18.13;;
43823;SDS011;29470;53.550;9.926;2024-01-11T12:18:39;54.58;;;18.30;;
43823;SDS011;29470;53.550;9.926;2024-01-11T12:24:10;50.95;;;17.52;;
43823;SDS011;29470;53.550;9.926;2024-01-11T12:29:22;55.55;;;17.67;;
43823;SDS011;29470;53.550;9.926;2024-01-11T12:34:54;53.45;;;17.35;;
43823;SDS011;29470;53.550;9.926;2024-01-11T12:40:12;52.22;;;17.55;;
43823;SDS011;29470;53.550;9.926;2024-01-11T12:46:10;51.45;;;17.65;;
43823;SDS011;29470;53.550;9.926;2024-01-11T12:51:22;51.78;;;18.13;;
43823;SDS011;29470;53.550;9.926;2024-01-11T12:56:42;49.67;;;17.20;;
43823;SDS011;29470;53.550;9.926;2024-01-11T13:01:57;55.20;;;16.38;;
43823;SDS011;29470;53.550;9.926;2024-01-11T13:12:34;48.85;;;17.55;;
43823;SDS011;29470;53.550;9.926;2024-01-11T13:17:45;45.25;;;16.17;;
43823;SDS011;29470;53.550;9.926;2024-01-11T13:28:29;56.30;;;17.88;;
43823;SDS011;29470;53.550;9.926;2024-01-11T13:33:42;51.65;;;18.35;;
43823;SDS011;29470;53.550;9.926;2024-01-11T13:39:10;54.67;;;18.33;;
43823;SDS011;29470;53.550;9.926;2024-01-11T13:44:44;50.25;;;17.50;;
43823;SDS011;29470;53.550;9.926;2024-01-11T13:50:25;47.70;;;16.65;;
43823;SDS011;29470;53.550;9.926;2024-01-11T13:55:57;45.97;;;15.98;;
43823;SDS011;29470;53.550;9.926;2024-01-11T14:01:46;45.88;;;16.35;;
43823;SDS011;29470;53.550;9.926;2024-01-11T14:07:24;46.17;;;15.07;;
43823;SDS011;29470;53.550;9.926;2024-01-11T14:12:46;38.47;;;13.40;;
43823;SDS011;29470;53.550;9.926;2024-01-11T14:18:16;36.90;;;13.88;;
43823;SDS011;29470;53.550;9.926;2024-01-11T14:23:43;34.28;;;11.82;;
43823;SDS011;29470;53.550;9.926;2024-01-11T14:29:07;33.13;;;11.75;;
43823;SDS011;29470;53.550;9.926;2024-01-11T14:34:34;30.40;;;10.15;;
43823;SDS011;29470;53.550;9.926;2024-01-11T14:40:09;33.30;;;12.27;;
43823;SDS011;29470;53.550;9.926;2024-01-11T14:45:42;30.50;;;11.40;;
43823;SDS011;29470;53.550;9.926;2024-01-11T14:51:18;35.78;;;12.23;;
43823;SDS011;29470;53.550;9.926;2024-01-11T14:56:42;32.05;;;11.45;;
43823;SDS011;29470;53.550;9.926;2024-01-11T15:02:05;30.60;;;11.45;;
43823;SDS011;29470;53.550;9.926;2024-01-11T15:07:41;46.95;;;13.98;;
43823;SDS011;29470;53.550;9.926;2024-01-11T15:12:57;33.33;;;12.20;;
43823;SDS011;29470;53.550;9.926;2024-01-11T15:18:29;38.58;;;12.43;;
43823;SDS011;29470;53.550;9.926;2024-01-11T15:23:58;34.25;;;11.75;;
43823;SDS011;29470;53.550;9.926;2024-01-11T15:29:26;33.45;;;12.10;;
43823;SDS011;29470;53.550;9.926;2024-01-11T15:34:47;27.95;;;10.60;;
43823;SDS011;29470;53.550;9.926;2024-01-11T15:40:10;27.77;;;9.57;;
43823;SDS011;29470;53.550;9.926;2024-01-11T15:45:36;26.58;;;8.93;;
43823;SDS011;29470;53.550;9.926;2024-01-11T15:51:00;26.50;;;9.48;;
43823;SDS011;29470;53.550;9.926;2024-01-11T15:56:07;29.63;;;9.05;;
43823;SDS011;29470;53.550;9.926;2024-01-11T16:01:10;21.95;;;9.05;;
43823;SDS011;29470;53.550;9.926;2024-01-11T16:06:13;27.80;;;9.75;;
43823;SDS011;29470;53.550;9.926;2024-01-11T16:11:17;23.40;;;8.82;;
43823;SDS011;29470;53.550;9.926;2024-01-11T16:16:21;25.90;;;8.90;;
43823;SDS011;29470;53.550;9.926;2024-01-11T16:21:24;28.35;;;9.65;;
43823;SDS011;29470;53.550;9.926;2024-01-11T16:26:31;32.63;;;10.60;;
43823;SDS011;29470;53.550;9.926;2024-01-11T16:31:34;31.88;;;10.10;;
43823;SDS011;29470;53.550;9.926;2024-01-11T16:36:37;31.23;;;12.55;;
43823;SDS011;29470;53.550;9.926;2024-01-11T16:41:41;32.42;;;11.50;;
43823;SDS011;29470;53.550;9.926;2024-01-11T16:46:45;35.72;;;11.65;;
43823;SDS011;29470;53.550;9.926;2024-01-11T16:51:48;36.20;;;12.70;;
43823;SDS011;29470;53.550;9.926;2024-01-11T16:56:53;36.42;;;12.80;;
43823;SDS011;29470;53.550;9.926;2024-01-11T17:01:56;38.03;;;13.43;;
43823;SDS011;29470;53.550;9.926;2024-01-11T17:06:59;45.85;;;13.95;;
43823;SDS011;29470;53.550;9.926;2024-01-11T17:12:04;47.35;;;16.08;;
43823;SDS011;29470;53.550;9.926;2024-01-11T17:17:07;41.63;;;13.95;;
43823;SDS011;29470;53.550;9.926;2024-01-11T17:22:11;42.75;;;13.80;;
43823;SDS011;29470;53.550;9.926;2024-01-11T17:27:15;40.22;;;14.40;;
43823;SDS011;29470;53.550;9.926;2024-01-11T17:32:18;39.33;;;13.60;;
43823;SDS011;29470;53.550;9.926;2024-01-11T17:37:21;36.80;;;13.70;;
43823;SDS011;29470;53.550;9.926;2024-01-11T17:42:25;46.38;;;16.92;;
43823;SDS011;29470;53.550;9.926;2024-01-11T17:47:28;53.85;;;17.42;;
43823;SDS011;29470;53.550;9.926;2024-01-11T17:52:31;46.47;;;16.30;;
43823;SDS011;29470;53.550;9.926;2024-01-11T17:57:36;50.42;;;15.38;;
43823;SDS011;29470;53.550;9.926;2024-01-11T18:02:40;51.83;;;18.25;;
43823;SDS011;29470;53.550;9.926;2024-01-11T18:07:43;46.35;;;16.35;;
43823;SDS011;29470;53.550;9.926;2024-01-11T18:12:47;46.88;;;15.75;;
43823;SDS011;29470;53.550;9.926;2024-01-11T18:17:50;44.85;;;14.57;;
43823;SDS011;29470;53.550;9.926;2024-01-11T18:22:53;42.47;;;13.75;;
43823;SDS011;29470;53.550;9.926;2024-01-11T18:27:57;49.00;;;14.75;;
43823;SDS011;29470;53.550;9.926;2024-01-11T18:33:00;37.15;;;13.63;;
43823;SDS011;29470;53.550;9.926;2024-01-11T18:38:04;41.55;;;14.10;;
43823;SDS011;29470;53.550;9.926;2024-01-11T18:43:09;43.97;;;13.82;;
43823;SDS011;29470;53.550;9.926;2024-01-11T18:48:12;45.85;;;14.55;;
43823;SDS011;29470;53.550;9.926;2024-01-11T18:53:15;42.45;;;15.38;;
43823;SDS011;29470;53.550;9.926;2024-01-11T18:58:20;40.17;;;14.77;;
43823;SDS011;29470;53.550;9.926;2024-01-11T19:03:34;43.22;;;15.18;;
43823;SDS011;29470;53.550;9.926;2024-01-11T19:08:41;49.38;;;15.57;;
43823;SDS011;29470;53.550;9.926;2024-01-11T19:13:46;38.35;;;13.90;;
43823;SDS011;29470;53.550;9.926;2024-01-11T19:18:49;46.25;;;15.80;;
43823;SDS011;29470;53.550;9.926;2024-01-11T19:23:53;46.33;;;15.75;;
43823;SDS011;29470;53.550;9.926;2024-01-11T19:28:58;39.15;;;14.32;;
43823;SDS011;29470;53.550;9.926;2024-01-11T19:34:05;48.45;;;13.82;;
43823;SDS011;29470;53.550;9.926;2024-01-11T19:39:30;46.03;;;15.68;;
43823;SDS011;29470;53.550;9.926;2024-01-11T19:44:34;60.67;;;17.23;;
43823;SDS011;29470;53.550;9.926;2024-01-11T19:49:38;50.30;;;15.88;;
43823;SDS011;29470;53.550;9.926;2024-01-11T19:54:41;52.83;;;16.88;;
43823;SDS011;29470;53.550;9.926;2024-01-11T19:59:46;55.28;;;17.30;;
43823;SDS011;29470;53.550;9.926;2024-01-11T20:04:52;55.58;;;17.65;;
43823;SDS011;29470;53.550;9.926;2024-01-11T20:09:57;71.75;;;18.65;;
43823;SDS011;29470;53.550;9.926;2024-01-11T20:15:04;51.67;;;17.65;;
43823;SDS011;29470;53.550;9.926;2024-01-11T20:20:07;64.03;;;20.05;;
43823;SDS011;29470;53.550;9.926;2024-01-11T20:25:10;60.33;;;19.83;;
43823;SDS011;29470;53.550;9.926;2024-01-11T20:30:15;52.70;;;18.45;;
43823;SDS011;29470;53.550;9.926;2024-01-11T20:35:18;58.05;;;19.40;;
43823;SDS011;29470;53.550;9.926;2024-01-11T20:40:21;59.88;;;18.70;;
43823;SDS011;29470;53.550;9.926;2024-01-11T20:45:25;61.45;;;20.58;;
43823;SDS011;29470;53.550;9.926;2024-01-11T20:50:28;53.80;;;18.63;;
43823;SDS011;29470;53.550;9.926;2024-01-11T20:55:32;60.25;;;19.75;;
43823;SDS011;29470;53.550;9.926;2024-01-11T21:00:36;47.22;;;19.35;;
43823;SDS011;29470;53.550;9.926;2024-01-11T21:05:40;44.10;;;18.83;;
43823;SDS011;29470;53.550;9.926;2024-01-11T21:10:43;46.15;;;19.73;;
43823;SDS011;29470;53.550;9.926;2024-01-11T21:15:47;64.50;;;21.92;;
43823;SDS011;29470;53.550;9.926;2024-01-11T21:20:50;45.90;;;20.08;;
43823;SDS011;29470;53.550;9.926;2024-01-11T21:25:53;53.90;;;20.95;;
43823;SDS011;29470;53.550;9.926;2024-01-11T21:30:58;81.30;;;22.02;;
43823;SDS011;29470;53.550;9.926;2024-01-11T21:36:01;65.40;;;20.85;;
43823;SDS011;29470;53.550;9.926;2024-01-11T21:41:05;67.63;;;20.98;;
43823;SDS011;29470;53.550;9.926;2024-01-11T21:46:09;57.22;;;21.63;;
43823;SDS011;29470;53.550;9.926;2024-01-11T21:51:13;58.42;;;20.40;;
43823;SDS011;29470;53.550;9.926;2024-01-11T21:56:16;60.45;;;18.55;;
43823;SDS011;29470;53.550;9.926;2024-01-11T22:01:22;74.22;;;19.38;;
43823;SDS011;29470;53.550;9.926;2024-01-11T22:06:25;63.03;;;19.30;;
43823;SDS011;29470;53.550;9.926;2024-01-11T22:11:28;60.47;;;18.60;;
43823;SDS011;29470;53.550;9.926;2024-01-11T22:16:33;52.45;;;17.23;;
43823;SDS011;29470;53.550;9.926;2024-01-11T22:21:36;40.85;;;16.55;;
43823;SDS011;29470;53.550;9.926;2024-01-11T22:26:40;46.10;;;17.90;;
43823;SDS011;29470;53.550;9.926;2024-01-11T22:31:44;42.47;;;15.98;;
43823;SDS011;29470;53.550;9.926;2024-01-11T22:36:47;55.60;;;17.42;;
43823;SDS011;29470;53.550;9.926;2024-01-11T22:41:50;42.08;;;16.83;;
43823;SDS011;29470;53.550;9.926;2024-01-11T22:46:54;42.15;;;17.00;;
43823;SDS011;29470;53.550;9.926;2024-01-11T22:51:57;50.58;;;16.65;;
43823;SDS011;29470;53.550;9.926;2024-01-11T22:57:00;40.92;;;16.60;;
43823;SDS011;29470;53.550;9.926;2024-01-11T23:02:04;42.15;;;17.08;;
43823;SDS011;29470;53.550;9.926;2024-01-11T23:07:07;40.75;;;17.83;;
43823;SDS011;29470;53.550;9.926;2024-01-11T23:12:10;33.85;;;15.45;;
43823;SDS011;29470;53.550;9.926;2024-01-11T23:17:15;40.05;;;18.80;;
43823;SDS011;29470;53.550;9.926;2024-01-11T23:22:18;32.88;;;15.95;;
43823;SDS011;29470;53.550;9.926;2024-01-11T23:27:21;42.47;;;17.75;;
43823;SDS011;29470;53.550;9.926;2024-01-11T23:32:26;44.85;;;17.45;;
43823;SDS011;29470;53.550;9.926;2024-01-11T23:37:29;36.38;;;16.05;;
43823;SDS011;29470;53.550;9.926;2024-01-11T23:42:32;38.60;;;16.67;;
43823;SDS011;29470;53.550;9.926;2024-01-11T23:47:36;38.83;;;16.80;;
43823;SDS011;29470;53.550;9.926;2024-01-11T23:52:40;42.25;;;17.10;;
43823;SDS011;29470;53.550;9.926;2024-01-11T23:57:43;35.40;;;16.02;;
